Doutor Ulysses, Brazil
Current Conditions -  °F | °C
As of 1:00 PM on Monday 22 Dec 2014 (Local Time) from SBBI Reporting Station
Light Rain Light Rain  
Wind Chill: 64°   Ceiling: 300
Heat Index: 64°   Visibility: 2.5mi
Dew Point: 63°   Wind: 6mph
Humidity: 94%   Direction: 110°ESE
Pressure: 29.97"   Gusts: NA
Location:  24.57°S, 49.42°W
Report Text: SBBI 221500Z 11005KT 4000 -RA BKN003 BKN012 BKN030 18/17 Q1015
Loading
Personal Weather Stations






























Interactive Weather Map New forecast layout! Learn more

10-Day Weather Forecast

Advertisements
Track Severe Weather on mobile